createdAt,value
2022-08-20T00:01:02.065Z,99.99
2022-08-20T00:01:58.340Z,99.99
2022-08-20T00:02:57.273Z,99.99
2022-08-20T00:03:57.271Z,99.99
2022-08-20T00:04:57.279Z,99.99
2022-08-20T00:05:57.244Z,99.99
2022-08-20T00:06:57.264Z,99.99
2022-08-20T00:07:57.401Z,99.99
2022-08-20T00:08:57.202Z,99.99
2022-08-20T00:09:57.185Z,99.99
2022-08-20T00:10:57.220Z,99.99
2022-08-20T00:11:57.217Z,99.99
2022-08-20T00:12:57.146Z,99.99
2022-08-20T00:13:57.134Z,99.99
2022-08-20T00:14:57.124Z,99.99
2022-08-20T00:15:57.145Z,99.99
2022-08-20T00:16:57.094Z,99.99
2022-08-20T00:17:57.257Z,99.99
2022-08-20T00:18:57.069Z,99.99
2022-08-20T00:19:57.068Z,99.99
2022-08-20T00:20:57.045Z,99.99
2022-08-20T00:21:58.449Z,99.99
2022-08-20T00:22:57.019Z,99.99
2022-08-20T00:23:56.999Z,99.99
2022-08-20T00:24:56.988Z,99.99
2022-08-20T00:25:57.026Z,99.99
2022-08-20T00:26:56.966Z,99.99
2022-08-20T00:27:57.066Z,99.99
2022-08-20T00:28:56.947Z,99.99
2022-08-20T00:29:56.919Z,99.99
2022-08-20T00:30:56.914Z,99.99
2022-08-20T00:31:56.900Z,99.99
2022-08-20T00:32:56.877Z,99.99
2022-08-20T00:33:56.868Z,99.99
2022-08-20T00:34:56.890Z,99.99
2022-08-20T00:35:56.926Z,99.99
2022-08-20T00:36:56.859Z,99.99
2022-08-20T00:38:00.518Z,99.99
2022-08-20T00:38:56.799Z,99.99
2022-08-20T00:39:56.831Z,99.99
2022-08-20T00:40:56.780Z,99.99
2022-08-20T00:41:56.775Z,99.99
2022-08-20T00:42:56.766Z,99.99
2022-08-20T00:43:56.775Z,99.99
2022-08-20T00:44:56.729Z,99.99
2022-08-20T00:45:56.729Z,99.99
2022-08-20T00:46:56.701Z,99.99
2022-08-20T00:47:56.855Z,99.99
2022-08-20T00:48:56.679Z,99.99
2022-08-20T00:49:56.659Z,99.99
2022-08-20T00:50:56.660Z,99.99
2022-08-20T00:51:56.632Z,99.99
2022-08-20T00:52:56.631Z,99.99
2022-08-20T00:53:56.631Z,99.99
2022-08-20T00:54:56.606Z,99.99
2022-08-20T00:55:56.582Z,99.99
2022-08-20T00:56:56.573Z,99.99
2022-08-20T00:58:01.048Z,99.99
2022-08-20T00:58:57.611Z,99.99
2022-08-20T00:59:56.521Z,99.99
2022-08-20T01:00:56.511Z,99.99
2022-08-20T01:01:56.732Z,99.99
2022-08-20T01:02:56.482Z,99.99
2022-08-20T01:03:56.472Z,99.99
2022-08-20T01:04:56.483Z,99.99
2022-08-20T01:05:56.442Z,99.98
2022-08-20T01:06:56.444Z,99.99
2022-08-20T01:07:56.587Z,99.99
2022-08-20T01:08:56.414Z,99.99
2022-08-20T01:09:59.184Z,99.99
2022-08-20T01:10:56.415Z,99.99
2022-08-20T01:11:56.392Z,99.93
2022-08-20T01:12:59.192Z,99.83
2022-08-20T01:13:56.368Z,99.83
2022-08-20T01:14:56.323Z,99.99
2022-08-20T01:15:56.313Z,99.99
2022-08-20T01:16:56.353Z,99.99
2022-08-20T01:17:56.358Z,99.99
2022-08-20T01:18:56.286Z,99.99
2022-08-20T01:19:56.266Z,99.99
2022-08-20T01:20:56.256Z,99.99
2022-08-20T01:21:56.237Z,99.99
2022-08-20T01:22:56.244Z,99.99
2022-08-20T01:23:56.214Z,99.99
2022-08-20T01:24:56.215Z,99.99
2022-08-20T01:25:56.186Z,99.99
2022-08-20T01:26:56.175Z,99.99
2022-08-20T01:27:56.335Z,99.99
2022-08-20T01:28:56.156Z,99.99
2022-08-20T01:29:56.136Z,99.99
2022-08-20T01:30:56.136Z,99.99
2022-08-20T01:31:56.108Z,99.99
2022-08-20T01:32:56.104Z,99.99
2022-08-20T01:33:56.099Z,99.99
2022-08-20T01:34:56.068Z,99.99
2022-08-20T01:35:56.058Z,99.99
2022-08-20T01:36:56.063Z,99.99
2022-08-20T01:37:56.156Z,99.99
2022-08-20T01:38:56.024Z,99.99
2022-08-20T01:39:56.067Z,99.99
2022-08-20T01:40:55.989Z,99.99
2022-08-20T01:41:55.988Z,99.99
2022-08-20T01:42:59.658Z,99.99
2022-08-20T01:43:55.948Z,99.99
2022-08-20T01:44:55.937Z,99.99
2022-08-20T01:45:55.927Z,99.99
2022-08-20T01:46:57.683Z,99.99
2022-08-20T01:47:56.001Z,99.99
2022-08-20T01:48:55.894Z,99.99
2022-08-20T01:49:55.871Z,99.99
2022-08-20T01:50:55.870Z,99.99
2022-08-20T01:51:55.850Z,99.99
2022-08-20T01:52:55.849Z,99.99
2022-08-20T01:53:55.840Z,99.99
2022-08-20T01:54:55.801Z,99.99
2022-08-20T01:55:55.787Z,99.99
2022-08-20T01:56:55.779Z,99.99
2022-08-20T01:57:55.854Z,99.99
2022-08-20T01:58:56.017Z,99.99
2022-08-20T01:59:55.739Z,99.99
2022-08-20T02:00:55.721Z,99.99
2022-08-20T02:01:55.745Z,99.99
2022-08-20T02:02:55.711Z,99.99
2022-08-20T02:03:55.682Z,99.99
2022-08-20T02:04:55.681Z,99.99
2022-08-20T02:05:55.672Z,99.99
2022-08-20T02:06:56.638Z,99.99
2022-08-20T02:07:55.839Z,99.99
2022-08-20T02:08:55.623Z,99.99
2022-08-20T02:09:55.610Z,99.99
2022-08-20T02:11:02.677Z,99.99
2022-08-20T02:11:55.567Z,99.99
2022-08-20T02:12:55.566Z,99.99
2022-08-20T02:13:55.548Z,99.99
2022-08-20T02:14:55.539Z,99.99
2022-08-20T02:15:55.529Z,99.99
2022-08-20T02:16:55.732Z,99.99
2022-08-20T02:17:55.677Z,99.99
2022-08-20T02:18:55.490Z,99.99
2022-08-20T02:19:55.492Z,99.99
2022-08-20T02:20:55.450Z,99.99
2022-08-20T02:21:55.459Z,99.99
2022-08-20T02:22:55.438Z,99.99
2022-08-20T02:23:55.419Z,99.99
2022-08-20T02:24:55.412Z,99.99
2022-08-20T02:25:55.410Z,99.99
2022-08-20T02:26:55.380Z,99.99
2022-08-20T02:27:55.512Z,99.99
2022-08-20T02:28:55.361Z,99.99
2022-08-20T02:29:55.352Z,99.99
2022-08-20T02:30:55.348Z,99.99
2022-08-20T02:32:24.421Z,99.99
2022-08-20T02:32:56.524Z,99.99
2022-08-20T02:34:18.160Z,99.99
2022-08-20T02:34:56.261Z,99.99
2022-08-20T02:35:55.251Z,99.99
2022-08-20T02:36:55.232Z,99.99
2022-08-20T02:37:55.454Z,99.99
2022-08-20T02:38:55.222Z,99.99
2022-08-20T02:39:55.236Z,99.99
2022-08-20T02:40:55.192Z,99.99
2022-08-20T02:41:55.183Z,99.99
2022-08-20T02:42:56.981Z,99.99
2022-08-20T02:43:55.155Z,99.99
2022-08-20T02:44:55.144Z,99.99
2022-08-20T02:45:55.132Z,99.99
2022-08-20T02:46:55.112Z,99.99
2022-08-20T02:47:55.332Z,99.99
2022-08-20T02:48:55.153Z,99.99
2022-08-20T02:49:55.064Z,99.99
2022-08-20T02:50:55.043Z,99.99
2022-08-20T02:51:55.032Z,99.99
2022-08-20T02:52:55.028Z,99.99
2022-08-20T02:53:55.023Z,99.99
2022-08-20T02:54:55.004Z,99.99
2022-08-20T02:55:54.991Z,99.99
2022-08-20T02:56:54.967Z,99.99
2022-08-20T02:57:55.108Z,99.99
2022-08-20T02:58:54.944Z,99.99
2022-08-20T02:59:54.946Z,99.99
2022-08-20T03:00:54.916Z,99.99
2022-08-20T03:01:59.964Z,99.99
2022-08-20T03:02:55.887Z,99.99
2022-08-20T03:03:54.876Z,99.99
2022-08-20T03:04:54.860Z,99.99
2022-08-20T03:05:54.873Z,99.99
2022-08-20T03:06:54.847Z,99.99
2022-08-20T03:07:54.995Z,99.99
2022-08-20T03:08:54.805Z,99.99
2022-08-20T03:09:54.786Z,99.99
2022-08-20T03:10:54.774Z,99.99
2022-08-20T03:11:54.775Z,99.99
2022-08-20T03:12:54.749Z,99.99
2022-08-20T03:13:54.748Z,99.99
2022-08-20T03:14:54.748Z,99.99
2022-08-20T03:15:58.616Z,99.99
2022-08-20T03:16:54.708Z,99.99
2022-08-20T03:17:54.903Z,99.99
2022-08-20T03:18:54.679Z,99.99
2022-08-20T03:19:54.688Z,99.99
2022-08-20T03:20:54.647Z,99.99
2022-08-20T03:21:54.638Z,99.99
2022-08-20T03:22:54.626Z,99.99
2022-08-20T03:23:54.611Z,99.99
2022-08-20T03:24:54.599Z,99.99
2022-08-20T03:25:54.599Z,99.99
2022-08-20T03:26:54.569Z,99.99
2022-08-20T03:27:54.959Z,99.99
2022-08-20T03:28:54.541Z,99.99
2022-08-20T03:29:54.518Z,99.99
2022-08-20T03:30:54.506Z,99.99
2022-08-20T03:31:54.508Z,99.99
2022-08-20T03:32:54.493Z,99.99
2022-08-20T03:33:54.486Z,99.99
2022-08-20T03:34:54.458Z,99.99
2022-08-20T03:35:54.448Z,99.99
2022-08-20T03:36:54.449Z,99.99
2022-08-20T03:37:54.451Z,99.99
2022-08-20T03:38:54.420Z,99.99
2022-08-20T03:39:54.451Z,99.99
2022-08-20T03:40:54.390Z,99.99
2022-08-20T03:41:54.381Z,99.99
2022-08-20T03:42:54.369Z,99.99
2022-08-20T03:43:54.372Z,99.99
2022-08-20T03:44:59.022Z,99.99
2022-08-20T03:45:55.320Z,99.99
2022-08-20T03:46:54.303Z,99.99
2022-08-20T03:47:54.291Z,99.99
2022-08-20T03:48:59.792Z,99.99
2022-08-20T03:49:55.281Z,99.99
2022-08-20T03:50:54.269Z,99.99
2022-08-20T03:51:57.590Z,99.99
2022-08-20T03:52:54.244Z,99.99
2022-08-20T03:53:54.234Z,99.99
2022-08-20T03:54:54.223Z,99.99
2022-08-20T03:55:55.215Z,99.99
2022-08-20T03:56:54.195Z,99.99
2022-08-20T03:57:54.175Z,99.99
2022-08-20T03:58:54.154Z,99.99
2022-08-20T03:59:55.129Z,99.99
2022-08-20T04:00:54.173Z,99.99
2022-08-20T04:01:54.145Z,99.99
2022-08-20T04:02:54.214Z,99.99
2022-08-20T04:03:55.318Z,99.99
2022-08-20T04:04:54.081Z,99.99
2022-08-20T04:05:54.071Z,99.99
2022-08-20T04:06:54.053Z,99.99
2022-08-20T04:07:54.045Z,99.99
2022-08-20T04:08:54.040Z,99.99
2022-08-20T04:09:54.015Z,99.99
2022-08-20T04:10:53.996Z,99.99
2022-08-20T04:11:53.993Z,99.99
2022-08-20T04:12:53.988Z,99.99
2022-08-20T04:13:53.965Z,99.99
2022-08-20T04:14:53.975Z,99.99
2022-08-20T04:15:53.940Z,99.99
2022-08-20T04:16:53.917Z,99.99
2022-08-20T04:17:53.920Z,99.99
2022-08-20T04:19:01.730Z,99.99
2022-08-20T04:19:54.895Z,99.99
2022-08-20T04:20:53.856Z,99.99
2022-08-20T04:21:53.894Z,99.99
2022-08-20T04:22:58.973Z,99.99
2022-08-20T04:23:54.825Z,99.99
2022-08-20T04:24:53.808Z,99.99
2022-08-20T04:25:53.809Z,99.99
2022-08-20T04:26:53.788Z,99.99
2022-08-20T04:27:53.770Z,99.99
2022-08-20T04:28:53.767Z,99.99
2022-08-20T04:29:53.750Z,99.99
2022-08-20T04:30:53.737Z,99.99
2022-08-20T04:31:53.707Z,99.99
2022-08-20T04:32:53.705Z,99.99
2022-08-20T04:33:53.708Z,99.99
2022-08-20T04:34:53.678Z,99.99
2022-08-20T04:35:53.669Z,99.99
2022-08-20T04:36:53.659Z,99.99
2022-08-20T04:37:53.642Z,99.99
2022-08-20T04:38:53.649Z,99.99
2022-08-20T04:39:53.665Z,99.99
2022-08-20T04:40:53.606Z,99.99
2022-08-20T04:41:53.600Z,99.99
2022-08-20T04:42:53.558Z,99.99
2022-08-20T04:43:53.551Z,99.99
2022-08-20T04:44:53.529Z,99.99
2022-08-20T04:45:53.548Z,99.99
2022-08-20T04:46:53.528Z,99.99
2022-08-20T04:47:53.519Z,99.99
2022-08-20T04:48:53.491Z,99.99
2022-08-20T04:49:53.490Z,99.99
2022-08-20T04:50:53.452Z,99.99
2022-08-20T04:51:53.451Z,99.99
2022-08-20T04:52:53.461Z,99.99
2022-08-20T04:53:53.771Z,99.99
2022-08-20T04:54:53.401Z,99.99
2022-08-20T04:55:53.453Z,99.99
2022-08-20T04:56:53.380Z,99.99
2022-08-20T04:57:53.390Z,99.99
2022-08-20T04:58:53.361Z,99.99
2022-08-20T04:59:57.701Z,99.99
2022-08-20T05:00:54.380Z,99.99
2022-08-20T05:01:53.301Z,99.99
2022-08-20T05:02:53.292Z,99.99
2022-08-20T05:03:53.283Z,99.99
2022-08-20T05:04:53.273Z,99.99
2022-08-20T05:05:54.694Z,99.99
2022-08-20T05:06:53.261Z,99.99
2022-08-20T05:07:53.230Z,99.99
2022-08-20T05:08:53.214Z,99.99
2022-08-20T05:09:53.204Z,99.99
2022-08-20T05:10:54.072Z,99.99
2022-08-20T05:11:54.194Z,99.99
2022-08-20T05:12:56.740Z,99.99
2022-08-20T05:13:53.139Z,99.99
2022-08-20T05:14:53.122Z,99.99
2022-08-20T05:15:53.113Z,99.99
2022-08-20T05:16:53.094Z,99.99
2022-08-20T05:17:53.104Z,99.99
2022-08-20T05:18:53.152Z,99.99
2022-08-20T05:19:53.065Z,99.99
2022-08-20T05:20:53.065Z,99.99
2022-08-20T05:21:53.047Z,99.99
2022-08-20T05:22:53.025Z,99.99
2022-08-20T05:23:53.124Z,99.99
2022-08-20T05:24:53.005Z,99.99
2022-08-20T05:25:53.034Z,99.99
2022-08-20T05:26:52.984Z,99.99
2022-08-20T05:27:52.967Z,99.99
2022-08-20T05:28:58.546Z,99.99
2022-08-20T05:29:53.925Z,99.99
2022-08-20T05:30:52.907Z,99.99
2022-08-20T05:31:52.895Z,99.99
2022-08-20T05:32:52.888Z,99.99
2022-08-20T05:33:52.890Z,99.99
2022-08-20T05:34:52.878Z,99.99
2022-08-20T05:35:52.851Z,99.99
2022-08-20T05:36:52.827Z,99.99
2022-08-20T05:37:52.825Z,99.99
2022-08-20T05:38:52.795Z,99.99
2022-08-20T05:39:52.848Z,99.99
2022-08-20T05:40:52.787Z,99.99
2022-08-20T05:41:52.767Z,99.99
2022-08-20T05:42:52.756Z,99.99
2022-08-20T05:43:52.737Z,99.99
2022-08-20T05:44:52.729Z,99.99
2022-08-20T05:45:56.606Z,99.99
2022-08-20T05:46:52.709Z,99.99
2022-08-20T05:47:56.559Z,99.99
2022-08-20T05:48:52.676Z,99.99
2022-08-20T05:49:52.669Z,99.99
2022-08-20T05:50:52.649Z,99.99
2022-08-20T05:51:52.653Z,99.99
2022-08-20T05:52:52.628Z,99.99
2022-08-20T05:53:52.667Z,99.99
2022-08-20T05:54:52.588Z,99.99
2022-08-20T05:55:52.578Z,99.99
2022-08-20T05:56:52.558Z,99.99
2022-08-20T05:57:52.643Z,99.99
2022-08-20T05:58:52.557Z,99.99
2022-08-20T05:59:52.540Z,99.99
2022-08-20T06:00:52.544Z,99.99
2022-08-20T06:01:52.498Z,99.99
2022-08-20T06:02:52.483Z,99.99
2022-08-20T06:03:52.473Z,99.99
2022-08-20T06:04:56.010Z,99.99
2022-08-20T06:05:52.451Z,99.99
2022-08-20T06:06:52.441Z,99.99
2022-08-20T06:07:52.496Z,99.99
2022-08-20T06:08:52.400Z,99.99
2022-08-20T06:09:52.380Z,99.99
2022-08-20T06:10:52.370Z,99.99
2022-08-20T06:11:52.394Z,99.99
2022-08-20T06:12:52.342Z,99.99
2022-08-20T06:13:52.330Z,99.99
2022-08-20T06:14:52.314Z,99.99
2022-08-20T06:15:52.300Z,99.99
2022-08-20T06:16:57.733Z,99.99
2022-08-20T06:17:58.436Z,99.99
2022-08-20T06:18:53.273Z,99.99
2022-08-20T06:19:52.281Z,99.99
2022-08-20T06:20:52.251Z,99.99
2022-08-20T06:21:52.251Z,99.99
2022-08-20T06:22:52.236Z,99.99
2022-08-20T06:23:56.864Z,99.99
2022-08-20T06:24:53.182Z,99.99
2022-08-20T06:25:52.172Z,99.99
2022-08-20T06:26:52.175Z,99.99
2022-08-20T06:27:52.222Z,99.99
2022-08-20T06:28:54.183Z,99.99
2022-08-20T06:29:52.118Z,99.99
2022-08-20T06:30:52.112Z,99.99
2022-08-20T06:31:52.093Z,99.99
2022-08-20T06:32:52.084Z,99.99
2022-08-20T06:33:52.075Z,99.99
2022-08-20T06:34:52.075Z,99.99
2022-08-20T06:35:52.046Z,99.99
2022-08-20T06:36:52.042Z,99.99
2022-08-20T06:37:52.113Z,99.99
2022-08-20T06:38:52.005Z,99.99
2022-08-20T06:39:52.086Z,99.99
2022-08-20T06:40:52.005Z,99.99
2022-08-20T06:41:51.975Z,99.99
2022-08-20T06:42:52.662Z,99.99
2022-08-20T06:43:51.945Z,99.99
2022-08-20T06:44:51.934Z,99.99
2022-08-20T06:45:51.951Z,99.99
2022-08-20T06:46:51.904Z,99.99
2022-08-20T06:47:51.927Z,99.99
2022-08-20T06:48:51.877Z,99.99
2022-08-20T06:49:51.877Z,99.99
2022-08-20T06:50:51.848Z,99.99
2022-08-20T06:51:52.028Z,99.99
2022-08-20T06:52:53.218Z,99.99
2022-08-20T06:53:52.815Z,99.99
2022-08-20T06:54:51.797Z,99.99
2022-08-20T06:55:51.799Z,99.99
2022-08-20T06:56:51.767Z,99.99
2022-08-20T06:57:51.746Z,99.99
2022-08-20T06:58:51.745Z,99.99
2022-08-20T06:59:54.076Z,99.99
2022-08-20T07:00:51.762Z,99.99
2022-08-20T07:01:51.737Z,99.99
2022-08-20T07:02:51.701Z,99.99
2022-08-20T07:03:55.033Z,99.99
2022-08-20T07:04:51.670Z,99.99
2022-08-20T07:05:51.659Z,99.99
2022-08-20T07:06:51.640Z,99.99
2022-08-20T07:07:51.620Z,99.99
2022-08-20T07:08:51.619Z,99.99
2022-08-20T07:09:51.611Z,99.99
2022-08-20T07:10:51.600Z,99.99
2022-08-20T07:11:51.601Z,99.99
2022-08-20T07:12:51.565Z,99.99
2022-08-20T07:13:51.539Z,99.99
2022-08-20T07:14:51.539Z,99.99
2022-08-20T07:15:53.072Z,99.99
2022-08-20T07:16:51.502Z,99.99
2022-08-20T07:17:51.490Z,99.99
2022-08-20T07:18:51.481Z,99.99
2022-08-20T07:19:51.460Z,99.99
2022-08-20T07:20:51.482Z,99.99
2022-08-20T07:21:51.442Z,99.99
2022-08-20T07:22:51.441Z,99.99
2022-08-20T07:23:51.421Z,99.99
2022-08-20T07:24:51.411Z,99.99
2022-08-20T07:25:51.394Z,99.99
2022-08-20T07:26:51.403Z,99.99
2022-08-20T07:27:51.366Z,99.99
2022-08-20T07:28:51.352Z,99.99
2022-08-20T07:29:51.331Z,99.99
2022-08-20T07:30:56.757Z,99.99
2022-08-20T07:31:52.313Z,99.99
2022-08-20T07:32:51.327Z,99.99
2022-08-20T07:33:51.274Z,99.99
2022-08-20T07:34:51.273Z,99.99
2022-08-20T07:35:51.253Z,99.99
2022-08-20T07:36:51.253Z,99.99
2022-08-20T07:37:51.253Z,99.99
2022-08-20T07:38:51.235Z,99.99
2022-08-20T07:39:51.231Z,99.99
2022-08-20T07:40:51.193Z,99.99
2022-08-20T07:41:51.175Z,99.99
2022-08-20T07:42:52.219Z,99.99
2022-08-20T07:43:51.176Z,99.99
2022-08-20T07:44:51.149Z,99.99
2022-08-20T07:45:52.095Z,99.99
2022-08-20T07:46:51.126Z,99.99
2022-08-20T07:47:51.106Z,99.99
2022-08-20T07:48:51.090Z,99.99
2022-08-20T07:49:51.077Z,99.99
2022-08-20T07:50:51.066Z,99.99
2022-08-20T07:51:51.064Z,99.99
2022-08-20T07:52:51.034Z,99.99
2022-08-20T07:53:51.027Z,99.99
2022-08-20T07:54:51.005Z,99.99
2022-08-20T07:55:58.805Z,99.99
2022-08-20T07:56:51.996Z,99.99
2022-08-20T07:57:50.970Z,99.99
2022-08-20T07:58:50.948Z,99.99
2022-08-20T07:59:50.936Z,99.99
2022-08-20T08:00:50.991Z,99.99
2022-08-20T08:01:50.917Z,99.99
2022-08-20T08:02:50.914Z,99.99
2022-08-20T08:03:51.007Z,99.99
2022-08-20T08:04:50.898Z,99.99
2022-08-20T08:05:50.860Z,99.99
2022-08-20T08:06:50.888Z,99.99
2022-08-20T08:07:50.829Z,99.99
2022-08-20T08:08:50.826Z,99.99
2022-08-20T08:09:50.807Z,99.99
2022-08-20T08:10:58.210Z,99.99
2022-08-20T08:11:51.478Z,99.99
2022-08-20T08:12:50.778Z,99.99
2022-08-20T08:13:50.770Z,99.99
2022-08-20T08:14:50.752Z,99.99
2022-08-20T08:15:50.732Z,99.99
2022-08-20T08:16:50.782Z,99.99
2022-08-20T08:17:50.711Z,99.99
2022-08-20T08:18:50.801Z,99.99
2022-08-20T08:19:50.691Z,99.99
2022-08-20T08:20:50.671Z,99.99
2022-08-20T08:21:50.656Z,99.99
2022-08-20T08:22:50.726Z,99.99
2022-08-20T08:23:50.634Z,99.99
2022-08-20T08:24:57.235Z,99.99
2022-08-20T08:25:51.603Z,99.99
2022-08-20T08:26:50.591Z,99.99
2022-08-20T08:27:50.562Z,99.99
2022-08-20T08:28:50.721Z,99.99
2022-08-20T08:29:50.562Z,99.99
2022-08-20T08:30:50.544Z,99.99
2022-08-20T08:31:50.533Z,99.99
2022-08-20T08:32:50.505Z,99.99
2022-08-20T08:33:50.625Z,99.99
2022-08-20T08:34:50.486Z,99.99
2022-08-20T08:35:50.456Z,99.99
2022-08-20T08:36:50.472Z,99.99
2022-08-20T08:37:50.436Z,99.99
2022-08-20T08:38:50.416Z,99.99
2022-08-20T08:39:50.427Z,99.99
2022-08-20T08:40:50.788Z,99.99
2022-08-20T08:41:51.394Z,99.99
2022-08-20T08:42:50.376Z,99.99
2022-08-20T08:43:50.591Z,99.99
2022-08-20T08:44:50.350Z,99.99
2022-08-20T08:45:50.335Z,99.99
2022-08-20T08:46:50.318Z,99.99
2022-08-20T08:47:50.308Z,99.99
2022-08-20T08:48:50.275Z,99.99
2022-08-20T08:49:50.275Z,99.99
2022-08-20T08:50:54.057Z,99.99
2022-08-20T08:51:50.315Z,99.99
2022-08-20T08:52:50.226Z,99.99
2022-08-20T08:53:50.265Z,99.99
2022-08-20T08:54:50.211Z,99.99
2022-08-20T08:55:50.198Z,99.99
2022-08-20T08:56:50.737Z,99.99
2022-08-20T08:57:50.169Z,99.99
2022-08-20T08:58:50.158Z,99.99
2022-08-20T09:00:03.587Z,99.99
2022-08-20T09:00:57.362Z,99.99
2022-08-20T09:01:55.653Z,99.99
2022-08-20T09:02:51.173Z,99.99
2022-08-20T09:03:50.107Z,99.99
2022-08-20T09:04:50.068Z,99.99
2022-08-20T09:05:50.056Z,99.99
2022-08-20T09:06:52.333Z,99.99
2022-08-20T09:07:50.069Z,99.99
2022-08-20T09:08:50.018Z,99.99
2022-08-20T09:09:49.999Z,99.99
2022-08-20T09:10:50.001Z,99.99
2022-08-20T09:11:49.989Z,99.99
2022-08-20T09:12:50.069Z,99.99
2022-08-20T09:13:49.969Z,99.99
2022-08-20T09:14:49.941Z,99.99
2022-08-20T09:15:49.939Z,99.99
2022-08-20T09:16:52.712Z,99.99
2022-08-20T09:17:49.990Z,99.99
2022-08-20T09:18:49.890Z,99.99
2022-08-20T09:19:49.873Z,99.99
2022-08-20T09:20:49.861Z,99.99
2022-08-20T09:21:49.865Z,99.99
2022-08-20T09:22:49.919Z,99.99
2022-08-20T09:23:49.822Z,99.99
2022-08-20T09:24:49.811Z,99.99
2022-08-20T09:25:49.793Z,99.99
2022-08-20T09:26:49.789Z,99.99
2022-08-20T09:27:49.782Z,99.99
2022-08-20T09:28:52.244Z,99.99
2022-08-20T09:29:49.764Z,99.99
2022-08-20T09:30:49.846Z,99.99
2022-08-20T09:31:49.724Z,99.99
2022-08-20T09:36:29.227Z,99.99
2022-08-20T09:37:08.885Z,99.99
2022-08-20T09:38:07.917Z,99.99
2022-08-20T09:39:07.860Z,99.99
2022-08-20T09:40:07.887Z,99.99
2022-08-20T09:41:07.829Z,99.99
2022-08-20T09:42:07.819Z,99.99
2022-08-20T09:43:07.787Z,99.99
2022-08-20T09:44:07.778Z,99.99
2022-08-20T09:45:10.811Z,99.99
2022-08-20T09:46:07.749Z,99.99
2022-08-20T09:47:07.757Z,99.99
2022-08-20T09:48:10.384Z,99.99
2022-08-20T09:49:07.761Z,99.99
2022-08-20T09:50:07.699Z,99.99
2022-08-20T09:51:07.699Z,99.99
2022-08-20T09:52:07.688Z,99.99
2022-08-20T09:53:07.689Z,99.99
2022-08-20T09:54:07.678Z,99.99
2022-08-20T09:55:07.648Z,99.99
2022-08-20T09:56:07.670Z,99.99
2022-08-20T09:57:07.621Z,99.99
2022-08-20T09:58:07.640Z,99.98
2022-08-20T09:59:07.589Z,99.99
2022-08-20T10:00:07.593Z,99.88
2022-08-20T10:01:07.569Z,99.52
2022-08-20T10:02:08.603Z,99.98
2022-08-20T10:03:07.542Z,99.99
2022-08-20T10:04:07.529Z,99.99
2022-08-20T10:05:07.520Z,99.99
2022-08-20T10:06:07.520Z,99.99
2022-08-20T10:07:07.497Z,99.99
2022-08-20T10:08:07.472Z,99.99
2022-08-20T10:09:07.482Z,99.99
2022-08-20T10:10:07.453Z,99.99
2022-08-20T10:11:07.445Z,99.99
2022-08-20T10:12:07.433Z,99.99
2022-08-20T10:13:07.413Z,99.93
2022-08-20T10:14:07.402Z,99.28
2022-08-20T10:15:07.392Z,99.38
2022-08-20T10:16:07.374Z,99.13
2022-08-20T10:17:07.366Z,99.03
2022-08-20T10:18:07.383Z,98.43
2022-08-20T10:19:07.332Z,98.73
2022-08-20T10:20:07.312Z,98.23
2022-08-20T10:21:07.315Z,97.33
2022-08-20T10:22:07.294Z,97.13
2022-08-20T10:23:07.287Z,97.63
2022-08-20T10:24:07.312Z,97.33
2022-08-20T10:25:07.265Z,97.23
2022-08-20T10:26:07.244Z,97.08
2022-08-20T10:27:07.224Z,97.08
2022-08-20T10:28:07.217Z,96.33
2022-08-20T10:29:07.205Z,96.83
2022-08-20T10:30:07.205Z,96.88
2022-08-20T10:31:07.188Z,97.18
2022-08-20T10:32:07.187Z,97.18
2022-08-20T10:33:07.171Z,96.78
2022-08-20T10:34:07.147Z,96.58
2022-08-20T10:35:07.179Z,96.64
2022-08-20T10:36:07.131Z,95.94
2022-08-20T10:37:07.118Z,96.53
2022-08-20T10:38:07.097Z,95.89
2022-08-20T10:39:07.076Z,95.73
2022-08-20T10:40:07.103Z,96.04
2022-08-20T10:41:07.097Z,96.09
2022-08-20T10:42:07.038Z,96.09
2022-08-20T10:43:07.048Z,94.54
2022-08-20T10:44:07.010Z,94.54
2022-08-20T10:45:06.995Z,94.69
2022-08-20T10:46:06.996Z,94.04
2022-08-20T10:47:06.988Z,94.59
2022-08-20T10:48:06.966Z,94.59
2022-08-20T10:49:06.979Z,94.39
2022-08-20T10:50:06.940Z,94.19
2022-08-20T10:51:06.929Z,93.74
2022-08-20T10:52:06.909Z,94.29
2022-08-20T10:53:06.910Z,93.89
2022-08-20T10:54:12.250Z,94.39
2022-08-20T10:55:07.859Z,94.89
2022-08-20T10:56:06.861Z,94.09
2022-08-20T10:57:06.849Z,93.99
2022-08-20T10:58:06.819Z,94.09
2022-08-20T10:59:06.816Z,93.89
2022-08-20T11:00:06.800Z,92.69
2022-08-20T11:01:06.803Z,92.99
2022-08-20T11:02:06.838Z,93.69
2022-08-20T11:03:06.781Z,93.29
2022-08-20T11:04:06.754Z,92.89
2022-08-20T11:05:06.762Z,92.49
2022-08-20T11:06:06.737Z,93.29
2022-08-20T11:07:06.719Z,92.75
2022-08-20T11:08:06.707Z,93.44
2022-08-20T11:09:06.756Z,92.75
2022-08-20T11:10:09.338Z,92.85
2022-08-20T11:11:07.659Z,90.15
2022-08-20T11:12:06.651Z,90.59
2022-08-20T11:13:06.644Z,91.29
2022-08-20T11:14:06.634Z,91.55
2022-08-20T11:15:06.643Z,91.09
2022-08-20T11:16:06.602Z,90.95
2022-08-20T11:17:06.592Z,90.84
2022-08-20T11:18:06.572Z,90.55
2022-08-20T11:19:06.565Z,90.84
2022-08-20T11:20:06.565Z,91.25
2022-08-20T11:21:06.566Z,90.75
2022-08-20T11:22:06.536Z,91.30
2022-08-20T11:23:06.515Z,91.40
2022-08-20T11:24:06.532Z,89.55
2022-08-20T11:25:06.495Z,89.05
2022-08-20T11:26:06.477Z,89.15
2022-08-20T11:27:06.483Z,89.51
2022-08-20T11:28:06.455Z,89.20
2022-08-20T11:29:06.437Z,89.01
2022-08-20T11:30:06.414Z,88.21
2022-08-20T11:31:06.417Z,88.81
2022-08-20T11:32:06.414Z,87.81
2022-08-20T11:33:06.397Z,87.61
2022-08-20T11:34:09.458Z,86.91
2022-08-20T11:35:38.529Z,86.41
2022-08-20T11:36:07.346Z,86.71
2022-08-20T11:37:06.362Z,87.21
2022-08-20T11:38:06.355Z,86.05
2022-08-20T11:39:06.366Z,85.85
2022-08-20T11:40:06.309Z,85.65
2022-08-20T11:41:06.287Z,86.55
2022-08-20T11:42:06.276Z,87.30
2022-08-20T11:43:15.086Z,86.15
2022-08-20T11:44:20.854Z,85.95
2022-08-20T11:45:07.248Z,85.95
2022-08-20T11:46:06.248Z,87.30
2022-08-20T11:47:06.219Z,86.31
2022-08-20T11:48:06.208Z,86.41
2022-08-20T11:49:06.189Z,86.01
2022-08-20T11:50:06.180Z,87.01
2022-08-20T11:51:06.170Z,87.41
2022-08-20T11:52:06.165Z,85.81
2022-08-20T11:53:06.138Z,86.31
2022-08-20T11:54:06.139Z,86.01
2022-08-20T11:55:06.118Z,86.71
2022-08-20T11:56:06.098Z,85.71
2022-08-20T11:57:06.092Z,86.61
2022-08-20T11:58:06.094Z,86.51
2022-08-20T11:59:06.072Z,86.31
2022-08-20T12:00:06.061Z,85.71
2022-08-20T12:01:06.042Z,86.11
2022-08-20T12:02:10.244Z,85.71
2022-08-20T12:03:08.953Z,85.41
2022-08-20T12:04:06.003Z,85.21
2022-08-20T12:05:06.002Z,85.71
2022-08-20T12:06:05.985Z,85.21
2022-08-20T12:07:05.962Z,85.31
2022-08-20T12:08:05.953Z,85.91
2022-08-20T12:09:05.951Z,84.71
2022-08-20T12:10:05.921Z,84.21
2022-08-20T12:11:05.940Z,85.41
2022-08-20T12:12:05.901Z,84.57
2022-08-20T12:13:05.890Z,85.17
2022-08-20T12:14:05.872Z,85.67
2022-08-20T12:15:05.885Z,83.47
2022-08-20T12:16:05.854Z,84.27
2022-08-20T12:17:05.852Z,82.28
2022-08-20T12:18:05.835Z,81.87
2022-08-20T12:19:05.834Z,81.07
2022-08-20T12:20:05.805Z,80.82
2022-08-20T12:21:05.813Z,80.91
2022-08-20T12:22:20.453Z,80.98
2022-08-20T12:23:06.776Z,81.37
2022-08-20T12:24:05.745Z,79.68
2022-08-20T12:25:05.734Z,80.18
2022-08-20T12:26:05.725Z,79.32
2022-08-20T12:27:05.715Z,79.32
2022-08-20T12:28:05.695Z,79.22
2022-08-20T12:29:05.704Z,79.41
2022-08-20T12:30:05.706Z,78.31
2022-08-20T12:31:05.677Z,79.02
2022-08-20T12:32:05.729Z,79.52
2022-08-20T12:33:05.658Z,78.38
2022-08-20T12:34:05.637Z,78.18
2022-08-20T12:35:05.625Z,78.18
2022-08-20T12:36:05.605Z,77.78
2022-08-20T12:37:05.586Z,79.88
2022-08-20T12:38:05.577Z,78.44
2022-08-20T12:39:05.568Z,77.74
2022-08-20T12:40:05.642Z,77.34
2022-08-20T12:41:05.560Z,77.44
2022-08-20T12:42:05.528Z,78.44
2022-08-20T12:43:05.519Z,77.61
2022-08-20T12:44:05.519Z,76.54
2022-08-20T12:45:05.499Z,76.65
2022-08-20T12:46:05.488Z,76.25
2022-08-20T12:47:05.487Z,74.85
2022-08-20T12:48:05.448Z,76.54
2022-08-20T12:49:05.449Z,75.38
2022-08-20T12:50:06.958Z,75.85
2022-08-20T12:51:05.418Z,77.14
2022-08-20T12:52:05.450Z,75.85
2022-08-20T12:53:05.399Z,76.15
2022-08-20T12:54:05.379Z,77.08
2022-08-20T12:55:05.372Z,76.48
2022-08-20T12:56:05.351Z,77.08